Time,TemperatureF,DewpointF,PressureIn,WindDirection,WindDirectionDegrees,WindSpeedMPH,WindSpeedGustMPH,Humidity,HourlyPrecipIn,Conditions,Clouds,dailyrainin,SoftwareType,DateUTC
2013-01-17 00:04:00,32.0,27.0,30.01,WSW,248,10.0,13.0,80,0.00,,,0.00,,2013-01-17 05:04:00,
2013-01-17 00:12:00,32.0,27.0,30.01,WSW,248,10.0,13.0,80,0.00,,,0.00,,2013-01-17 05:12:00,
2013-01-17 00:22:00,32.0,27.0,30.01,WSW,250,9.0,13.0,81,0.00,,,0.00,,2013-01-17 05:22:00,
2013-01-17 00:33:00,32.0,27.0,30.01,WSW,257,6.0,12.0,81,0.00,,,0.00,,2013-01-17 05:33:00,
2013-01-17 00:42:00,32.0,27.0,30.01,WSW,257,6.0,12.0,81,0.00,,,0.00,,2013-01-17 05:42:00,
2013-01-17 00:53:00,32.0,27.0,30.01,WSW,257,6.0,12.0,81,0.00,,,0.00,,2013-01-17 05:53:00,
2013-01-17 01:02:00,32.0,27.0,30.02,West,264,7.0,11.0,83,0.00,,,0.00,,2013-01-17 06:02:00,
2013-01-17 01:12:00,31.0,27.0,30.03,WSW,254,4.0,10.0,84,0.00,,,0.00,,2013-01-17 06:12:00,
2013-01-17 01:22:00,31.0,27.0,30.03,WSW,254,4.0,10.0,84,0.00,,,0.00,,2013-01-17 06:22:00,
2013-01-17 01:33:00,30.0,26.0,30.03,WSW,252,5.0,7.0,85,0.00,,,0.00,,2013-01-17 06:33:00,
2013-01-17 01:42:00,30.0,26.0,30.03,WSW,252,5.0,7.0,85,0.00,,,0.00,,2013-01-17 06:42:00,
2013-01-17 01:53:00,30.0,26.0,30.04,WSW,250,5.0,9.0,86,0.00,,,0.00,,2013-01-17 06:53:00,
2013-01-17 02:02:00,30.0,26.0,30.05,WSW,246,4.0,6.0,85,0.00,,,0.00,,2013-01-17 07:02:00,
2013-01-17 02:12:00,30.0,26.0,30.05,WSW,246,4.0,6.0,85,0.00,,,0.00,,2013-01-17 07:12:00,
2013-01-17 02:22:00,29.0,25.0,30.05,WSW,244,3.0,7.0,86,0.00,,,0.00,,2013-01-17 07:22:00,
2013-01-17 02:33:00,29.0,25.0,30.05,WSW,244,4.0,5.0,86,0.00,,,0.00,,2013-01-17 07:33:00,
2013-01-17 02:42:00,29.0,25.0,30.05,WSW,244,4.0,5.0,86,0.00,,,0.00,,2013-01-17 07:42:00,
2013-01-17 02:53:00,29.0,26.0,30.06,WSW,248,5.0,9.0,87,0.00,,,0.00,,2013-01-17 07:53:00,
2013-01-17 03:02:00,28.0,25.0,30.07,WSW,248,0.0,5.0,88,0.00,,,0.00,,2013-01-17 08:02:00,
2013-01-17 03:12:00,28.0,25.0,30.07,WSW,248,0.0,5.0,88,0.00,,,0.00,,2013-01-17 08:12:00,
2013-01-17 03:22:00,29.0,26.0,30.08,WSW,248,0.0,0.0,88,0.00,,,0.00,,2013-01-17 08:22:00,
2013-01-17 03:32:00,29.0,26.0,30.08,WSW,248,0.0,0.0,89,0.00,,,0.00,,2013-01-17 08:32:00,
2013-01-17 03:43:00,29.0,26.0,30.08,WSW,248,0.0,0.0,89,0.00,,,0.00,,2013-01-17 08:43:00,
2013-01-17 03:53:00,29.0,26.0,30.08,WSW,248,0.0,0.0,89,0.00,,,0.00,,2013-01-17 08:53:00,
2013-01-17 04:02:00,30.0,27.0,30.07,West,265,4.0,7.0,89,0.00,,,0.00,,2013-01-17 09:02:00,
2013-01-17 04:12:00,30.0,27.0,30.07,West,265,4.0,7.0,89,0.00,,,0.00,,2013-01-17 09:12:00,
2013-01-17 04:22:00,30.0,27.0,30.07,West,277,0.0,0.0,89,0.00,,,0.00,,2013-01-17 09:22:00,
2013-01-17 04:32:00,30.0,27.0,30.07,WNW,299,9.0,11.0,89,0.00,,,0.00,,2013-01-17 09:32:00,
2013-01-17 04:42:00,30.0,27.0,30.07,WNW,299,9.0,11.0,89,0.00,,,0.00,,2013-01-17 09:42:00,
2013-01-17 04:53:00,30.0,27.0,30.07,WNW,298,9.0,12.0,88,0.00,,,0.00,,2013-01-17 09:53:00,
2013-01-17 05:02:00,29.0,26.0,30.07,WNW,290,4.0,10.0,88,0.00,,,0.00,,2013-01-17 10:02:00,
2013-01-17 05:12:00,29.0,26.0,30.07,WNW,290,4.0,10.0,88,0.00,,,0.00,,2013-01-17 10:12:00,
2013-01-17 05:22:00,29.0,26.0,30.09,WNW,288,7.0,9.0,88,0.00,,,0.00,,2013-01-17 10:22:00,
2013-01-17 05:32:00,29.0,26.0,30.08,WNW,288,0.0,6.0,88,0.00,,,0.00,,2013-01-17 10:32:00,
2013-01-17 05:42:00,29.0,26.0,30.08,WNW,288,0.0,6.0,88,0.00,,,0.00,,2013-01-17 10:42:00,
2013-01-17 05:53:00,29.0,26.0,30.09,WNW,287,0.0,0.0,88,0.00,,,0.00,,2013-01-17 10:53:00,
2013-01-17 06:03:00,28.0,25.0,30.08,WNW,287,0.0,0.0,88,0.00,,,0.00,,2013-01-17 11:03:00,
2013-01-17 06:12:00,28.0,25.0,30.08,WNW,287,0.0,0.0,88,0.00,,,0.00,,2013-01-17 11:12:00,
2013-01-17 06:22:00,28.0,25.0,30.09,WNW,288,0.0,0.0,89,0.00,,,0.00,,2013-01-17 11:22:00,
2013-01-17 06:33:00,28.0,25.0,30.10,WNW,287,1.0,5.0,89,0.00,,,0.00,,2013-01-17 11:33:00,
2013-01-17 06:43:00,28.0,25.0,30.10,WNW,287,1.0,5.0,89,0.00,,,0.00,,2013-01-17 11:43:00,
2013-01-17 06:53:00,28.0,25.0,30.11,WNW,286,2.0,5.0,89,0.00,,,0.00,,2013-01-17 11:53:00,
2013-01-17 07:02:00,28.0,25.0,30.12,WNW,286,5.0,6.0,90,0.00,,,0.00,,2013-01-17 12:02:00,
2013-01-17 07:12:00,28.0,25.0,30.12,WNW,286,5.0,6.0,90,0.00,,,0.00,,2013-01-17 12:12:00,
2013-01-17 07:23:00,28.0,25.0,30.12,WNW,286,3.0,6.0,90,0.00,,,0.00,,2013-01-17 12:23:00,
2013-01-17 07:33:00,28.0,25.0,30.13,WNW,286,4.0,6.0,90,0.00,,,0.00,,2013-01-17 12:33:00,
2013-01-17 07:43:00,28.0,25.0,30.13,WNW,286,4.0,6.0,90,0.00,,,0.00,,2013-01-17 12:43:00,
2013-01-17 07:53:00,28.0,25.0,30.14,WNW,286,0.0,0.0,90,0.00,,,0.00,,2013-01-17 12:53:00,
2013-01-17 08:03:00,28.0,25.0,30.14,WNW,286,0.0,4.0,90,0.00,,,0.00,,2013-01-17 13:03:00,
2013-01-17 08:12:00,28.0,25.0,30.14,WNW,286,0.0,4.0,90,0.00,,,0.00,,2013-01-17 13:12:00,
2013-01-17 08:23:00,27.0,24.0,30.14,WNW,286,0.0,0.0,90,0.00,,,0.00,,2013-01-17 13:23:00,
2013-01-17 08:33:00,27.0,24.0,30.15,West,273,4.0,6.0,90,0.00,,,0.00,,2013-01-17 13:33:00,
2013-01-17 08:43:00,27.0,24.0,30.15,West,273,4.0,6.0,90,0.00,,,0.00,,2013-01-17 13:43:00,
2013-01-17 08:53:00,26.0,23.0,30.15,West,273,3.0,5.0,90,0.00,,,0.00,,2013-01-17 13:53:00,
2013-01-17 09:03:00,26.0,23.0,30.16,West,275,0.0,4.0,90,0.00,,,0.00,,2013-01-17 14:03:00,
2013-01-17 09:12:00,26.0,23.0,30.16,West,275,0.0,4.0,90,0.00,,,0.00,,2013-01-17 14:12:00,
2013-01-17 09:23:00,25.0,22.0,30.16,West,275,0.0,0.0,90,0.00,,,0.00,,2013-01-17 14:23:00,
2013-01-17 09:33:00,26.0,24.0,30.17,West,275,0.0,0.0,91,0.00,,,0.00,,2013-01-17 14:33:00,
2013-01-17 09:43:00,26.0,24.0,30.17,West,275,0.0,0.0,91,0.00,,,0.00,,2013-01-17 14:43:00,
2013-01-17 09:53:00,26.0,24.0,30.19,West,275,0.0,0.0,92,0.00,,,0.00,,2013-01-17 14:53:00,
2013-01-17 10:03:00,28.0,26.0,30.20,West,260,5.0,6.0,93,0.00,,,0.00,,2013-01-17 15:03:00,
2013-01-17 10:12:00,28.0,26.0,30.20,West,260,5.0,6.0,93,0.00,,,0.00,,2013-01-17 15:12:00,
2013-01-17 10:23:00,30.0,28.0,30.20,West,260,4.0,7.0,93,0.00,,,0.00,,2013-01-17 15:23:00,
2013-01-17 10:33:00,31.0,29.0,30.20,WNW,293,5.0,6.0,91,0.00,,,0.00,,2013-01-17 15:33:00,
2013-01-17 10:43:00,31.0,29.0,30.20,WNW,293,5.0,6.0,91,0.00,,,0.00,,2013-01-17 15:43:00,
2013-01-17 10:53:00,32.0,29.0,30.19,West,271,1.0,10.0,88,0.00,,,0.00,,2013-01-17 15:53:00,
2013-01-17 11:03:00,33.0,29.0,30.20,WNW,289,0.0,10.0,85,0.00,,,0.00,,2013-01-17 16:03:00,
2013-01-17 11:12:00,33.0,29.0,30.20,WNW,289,0.0,10.0,85,0.00,,,0.00,,2013-01-17 16:12:00,
2013-01-17 11:23:00,34.0,29.0,30.20,WNW,290,8.0,11.0,82,0.00,,,0.00,,2013-01-17 16:23:00,
2013-01-17 11:33:00,34.0,28.0,30.20,NW,323,11.0,15.0,77,0.00,,,0.00,,2013-01-17 16:33:00,
2013-01-17 11:43:00,34.0,28.0,30.20,NW,323,11.0,15.0,77,0.00,,,0.00,,2013-01-17 16:43:00,
2013-01-17 11:53:00,35.0,27.0,30.20,NW,321,11.0,14.0,73,0.00,,,0.00,,2013-01-17 16:53:00,
2013-01-17 12:03:00,36.0,28.0,30.19,NNW,331,10.0,17.0,72,0.00,,,0.00,,2013-01-17 17:03:00,
2013-01-17 12:13:00,36.0,28.0,30.19,NNW,331,10.0,17.0,72,0.00,,,0.00,,2013-01-17 17:13:00,
2013-01-17 12:23:00,36.0,27.0,30.19,NW,309,11.0,15.0,69,0.00,,,0.00,,2013-01-17 17:23:00,
2013-01-17 12:33:00,37.0,26.0,30.19,NNW,341,12.0,17.0,65,0.00,,,0.00,,2013-01-17 17:33:00,
2013-01-17 12:43:00,37.0,26.0,30.19,NNW,341,12.0,17.0,65,0.00,,,0.00,,2013-01-17 17:43:00,
2013-01-17 12:54:00,37.0,27.0,30.18,NNW,336,9.0,16.0,67,0.00,,,0.00,,2013-01-17 17:54:00,
2013-01-17 13:04:00,37.0,27.0,30.18,NNW,334,10.0,14.0,67,0.00,,,0.00,,2013-01-17 18:04:00,
2013-01-17 13:13:00,37.0,27.0,30.18,NNW,334,10.0,14.0,67,0.00,,,0.00,,2013-01-17 18:13:00,
2013-01-17 13:23:00,37.0,26.0,30.18,WNW,300,12.0,17.0,64,0.00,,,0.00,,2013-01-17 18:23:00,
2013-01-17 13:33:00,37.0,26.0,30.17,NNW,344,8.0,15.0,63,0.00,,,0.00,,2013-01-17 18:33:00,
2013-01-17 13:43:00,37.0,26.0,30.17,NNW,344,8.0,15.0,63,0.00,,,0.00,,2013-01-17 18:43:00,
2013-01-17 13:53:00,37.0,27.0,30.16,WNW,294,12.0,16.0,66,0.00,,,0.00,,2013-01-17 18:53:00,
2013-01-17 14:03:00,37.0,26.0,30.16,NW,323,14.0,19.0,63,0.00,,,0.00,,2013-01-17 19:03:00,
2013-01-17 14:13:00,37.0,26.0,30.16,NW,323,14.0,19.0,63,0.00,,,0.00,,2013-01-17 19:13:00,
2013-01-17 14:23:00,37.0,26.0,30.16,NW,323,11.0,20.0,63,0.00,,,0.00,,2013-01-17 19:23:00,
2013-01-17 14:33:00,37.0,25.0,30.15,NW,323,13.0,22.0,62,0.00,,,0.00,,2013-01-17 19:33:00,
2013-01-17 14:43:00,37.0,25.0,30.15,NW,323,13.0,22.0,62,0.00,,,0.00,,2013-01-17 19:43:00,
2013-01-17 14:53:00,37.0,26.0,30.15,NW,322,13.0,19.0,63,0.00,,,0.00,,2013-01-17 19:53:00,
2013-01-17 15:03:00,37.0,26.0,30.15,WNW,303,13.0,18.0,64,0.00,,,0.00,,2013-01-17 20:03:00,
2013-01-17 15:12:00,37.0,26.0,30.15,WNW,303,13.0,18.0,64,0.00,,,0.00,,2013-01-17 20:12:00,
2013-01-17 15:23:00,36.0,25.0,30.16,NW,310,13.0,22.0,63,0.00,,,0.00,,2013-01-17 20:23:00,
2013-01-17 15:33:00,36.0,23.0,30.16,WNW,303,16.0,21.0,60,0.00,,,0.00,,2013-01-17 20:33:00,
2013-01-17 15:43:00,36.0,23.0,30.16,WNW,303,16.0,21.0,60,0.00,,,0.00,,2013-01-17 20:43:00,
2013-01-17 15:54:00,36.0,24.0,30.16,NW,311,16.0,20.0,61,0.00,,,0.00,,2013-01-17 20:54:00,
2013-01-17 16:03:00,35.0,23.0,30.17,NNW,327,16.0,24.0,62,0.00,,,0.00,,2013-01-17 21:03:00,
2013-01-17 16:13:00,35.0,23.0,30.17,NNW,327,16.0,24.0,62,0.00,,,0.00,,2013-01-17 21:13:00,
2013-01-17 16:23:00,34.0,22.0,30.18,NNW,330,17.0,27.0,61,0.00,,,0.00,,2013-01-17 21:23:00,
2013-01-17 16:34:00,34.0,22.0,30.18,NNW,345,13.0,24.0,62,0.00,,,0.00,,2013-01-17 21:34:00,
2013-01-17 16:43:00,34.0,22.0,30.18,NNW,345,13.0,24.0,62,0.00,,,0.00,,2013-01-17 21:43:00,
2013-01-17 16:53:00,33.0,22.0,30.19,NW,309,12.0,23.0,64,0.00,,,0.00,,2013-01-17 21:53:00,
2013-01-17 17:03:00,32.0,21.0,30.20,NW,318,15.0,24.0,64,0.00,,,0.00,,2013-01-17 22:03:00,
2013-01-17 17:12:00,32.0,21.0,30.20,NW,318,15.0,24.0,64,0.00,,,0.00,,2013-01-17 22:12:00,
2013-01-17 17:23:00,31.0,21.0,30.20,NNW,334,20.0,23.0,65,0.00,,,0.00,,2013-01-17 22:23:00,
2013-01-17 17:33:00,31.0,21.0,30.21,NW,314,12.0,22.0,66,0.00,,,0.00,,2013-01-17 22:33:00,
2013-01-17 17:43:00,31.0,21.0,30.21,NW,314,12.0,22.0,66,0.00,,,0.00,,2013-01-17 22:43:00,
2013-01-17 17:53:00,29.0,19.0,30.22,NNW,335,13.0,26.0,67,0.00,,,0.00,,2013-01-17 22:53:00,
2013-01-17 18:03:00,29.0,20.0,30.23,NW,315,13.0,24.0,68,0.00,,,0.00,,2013-01-17 23:03:00,
2013-01-17 18:12:00,29.0,20.0,30.23,NW,315,13.0,24.0,68,0.00,,,0.00,,2013-01-17 23:12:00,
2013-01-17 18:23:00,28.0,20.0,30.24,WNW,302,15.0,22.0,70,0.00,,,0.00,,2013-01-17 23:23:00,
2013-01-17 18:33:00,27.0,19.0,30.25,NW,322,15.0,23.0,71,0.00,,,0.00,,2013-01-17 23:33:00,
2013-01-17 18:43:00,27.0,19.0,30.25,NW,322,15.0,23.0,71,0.00,,,0.00,,2013-01-17 23:43:00,
2013-01-17 18:53:00,27.0,19.0,30.26,NNW,334,18.0,25.0,70,0.00,,,0.00,,2013-01-17 23:53:00,
2013-01-17 19:03:00,26.0,18.0,30.27,NW,315,16.0,26.0,72,0.00,,,0.00,,2013-01-18 00:03:00,
2013-01-17 19:12:00,26.0,18.0,30.27,NW,315,16.0,26.0,72,0.00,,,0.00,,2013-01-18 00:12:00,
2013-01-17 19:23:00,26.0,18.0,30.28,NW,315,15.0,24.0,72,0.00,,,0.00,,2013-01-18 00:23:00,
2013-01-17 19:33:00,26.0,18.0,30.28,NW,315,15.0,24.0,72,0.00,,,0.00,,2013-01-18 00:33:00,
2013-01-17 19:42:00,25.0,17.0,30.29,NW,317,14.0,18.0,72,0.00,,,0.00,,2013-01-18 00:42:00,
2013-01-17 19:53:00,25.0,17.0,30.30,NNW,336,17.0,20.0,71,0.00,,,0.00,,2013-01-18 00:53:00,
2013-01-17 20:03:00,24.0,16.0,30.31,NW,314,14.0,18.0,72,0.00,,,0.00,,2013-01-18 01:03:00,
2013-01-17 20:13:00,24.0,16.0,30.31,NW,314,14.0,18.0,72,0.00,,,0.00,,2013-01-18 01:13:00,
2013-01-17 20:23:00,24.0,17.0,30.31,NW,322,10.0,16.0,73,0.00,,,0.00,,2013-01-18 01:23:00,
2013-01-17 20:33:00,24.0,16.0,30.32,NW,310,10.0,16.0,72,0.00,,,0.00,,2013-01-18 01:33:00,
2013-01-17 20:43:00,24.0,16.0,30.32,NW,310,10.0,16.0,72,0.00,,,0.00,,2013-01-18 01:43:00,
2013-01-17 20:53:00,23.0,16.0,30.33,NW,322,10.0,14.0,73,0.00,,,0.00,,2013-01-18 01:53:00,
2013-01-17 21:03:00,23.0,16.0,30.33,NNW,327,8.0,14.0,73,0.00,,,0.00,,2013-01-18 02:03:00,
2013-01-17 21:12:00,23.0,16.0,30.33,NNW,327,8.0,14.0,73,0.00,,,0.00,,2013-01-18 02:12:00,
2013-01-17 21:23:00,23.0,16.0,30.33,NNW,327,8.0,12.0,74,0.00,,,0.00,,2013-01-18 02:23:00,
2013-01-17 21:33:00,22.0,15.0,30.34,NW,323,0.0,7.0,74,0.00,,,0.00,,2013-01-18 02:33:00,
2013-01-17 21:43:00,22.0,15.0,30.34,NW,323,0.0,7.0,74,0.00,,,0.00,,2013-01-18 02:43:00,
2013-01-17 21:53:00,22.0,15.0,30.34,NW,315,0.0,0.0,75,0.00,,,0.00,,2013-01-18 02:53:00,
2013-01-17 22:02:00,22.0,16.0,30.34,NW,304,0.0,9.0,76,0.00,,,0.00,,2013-01-18 03:02:00,
2013-01-17 22:12:00,22.0,16.0,30.34,NW,304,0.0,9.0,76,0.00,,,0.00,,2013-01-18 03:12:00,
2013-01-17 22:23:00,21.0,15.0,30.34,NW,305,0.0,0.0,76,0.00,,,0.00,,2013-01-18 03:23:00,
2013-01-17 22:33:00,21.0,15.0,30.34,NW,305,0.0,0.0,77,0.00,,,0.00,,2013-01-18 03:33:00,
2013-01-17 22:42:00,21.0,15.0,30.34,NW,305,0.0,0.0,77,0.00,,,0.00,,2013-01-18 03:42:00,
2013-01-17 22:53:00,21.0,15.0,30.34,NW,304,0.0,0.0,77,0.00,,,0.00,,2013-01-18 03:53:00,
2013-01-17 23:02:00,20.0,15.0,30.34,NW,304,0.0,0.0,79,0.00,,,0.00,,2013-01-18 04:02:00,
2013-01-17 23:12:00,20.0,15.0,30.34,NW,304,0.0,0.0,79,0.00,,,0.00,,2013-01-18 04:12:00,
2013-01-17 23:22:00,20.0,15.0,30.35,WNW,286,6.0,6.0,80,0.00,,,0.00,,2013-01-18 04:22:00,
2013-01-17 23:33:00,20.0,15.0,30.35,West,277,5.0,7.0,80,0.00,,,0.00,,2013-01-18 04:33:00,
2013-01-17 23:42:00,20.0,15.0,30.35,West,277,5.0,7.0,80,0.00,,,0.00,,2013-01-18 04:42:00,
2013-01-17 23:53:00,20.0,15.0,30.36,West,265,6.0,9.0,79,0.00,,,0.00,,2013-01-18 04:53:00,